Time;durP1;ratioP1;P1;durP2;ratioP2;P2;SDS_P1;SDS_P2;PMS_P1;PMS_P2;Temp;Humidity;BMP_temperature;BMP_pressure;BME280_temperature;BME280_humidity;BME280_pressure;Samples;Min_cycle;Max_cycle;Signal;HPM_P1;HPM_P2
2022/08/07 00:00:58;;;;;;;5.35;3.63;;;20.00;99.90;;;;;;5012911;28;20420;-75
2022/08/07 00:03:25;;;;;;;10.88;4.15;;;20.00;99.90;;;;;;5014943;28;20034;-75
2022/08/07 00:05:51;;;;;;;6.05;3.63;;;20.00;99.90;;;;;;5012581;28;20054;-76
2022/08/07 00:08:18;;;;;;;5.88;3.60;;;20.10;99.90;;;;;;5015700;28;20034;-75
2022/08/07 00:10:44;;;;;;;8.70;3.50;;;20.20;99.90;;;;;;5013946;28;20026;-75
2022/08/07 00:13:10;;;;;;;9.00;3.67;;;20.30;99.90;;;;;;5015367;28;20092;-75
2022/08/07 00:15:36;;;;;;;7.68;3.33;;;20.10;99.90;;;;;;5013575;28;20106;-75
2022/08/07 00:18:03;;;;;;;6.25;4.10;;;20.00;99.90;;;;;;5015608;28;20088;-75
2022/08/07 00:20:29;;;;;;;7.75;4.18;;;19.90;99.90;;;;;;5013985;28;20044;-75
2022/08/07 00:22:54;;;;;;;6.22;4.15;;;19.90;99.90;;;;;;5015643;28;20093;-75
2022/08/07 00:25:22;;;;;;;8.68;4.75;;;19.90;99.90;;;;;;5013535;28;20052;-75
2022/08/07 00:27:47;;;;;;;8.40;3.83;;;19.90;99.90;;;;;;5015777;28;20033;-75
2022/08/07 00:30:13;;;;;;;5.90;3.80;;;19.80;99.90;;;;;;5013393;28;20088;-75
2022/08/07 00:32:39;;;;;;;6.38;3.80;;;19.80;99.90;;;;;;5015364;28;20032;-76
2022/08/07 00:35:05;;;;;;;7.32;4.38;;;19.70;99.90;;;;;;5014844;28;20038;-77
2022/08/07 00:37:30;;;;;;;6.05;3.85;;;19.70;99.90;;;;;;5016182;28;20066;-76
2022/08/07 00:39:56;;;;;;;6.15;3.92;;;19.80;99.90;;;;;;5013434;28;20030;-75
2022/08/07 00:42:22;;;;;;;6.85;4.35;;;19.80;99.90;;;;;;5015379;28;20034;-75
2022/08/07 00:44:48;;;;;;;8.57;4.32;;;19.90;99.90;;;;;;5013639;28;20037;-75
2022/08/07 00:47:14;;;;;;;6.55;3.88;;;19.70;99.90;;;;;;5015578;28;20400;-75
2022/08/07 00:49:39;;;;;;;6.63;4.22;;;19.70;99.90;;;;;;5013489;28;20034;-75
2022/08/07 00:52:07;;;;;;;7.07;3.97;;;19.90;99.90;;;;;;5014677;28;20096;-75
2022/08/07 00:54:32;;;;;;;8.57;3.42;;;20.00;99.90;;;;;;5013759;28;20033;-76
2022/08/07 00:56:58;;;;;;;6.95;4.45;;;20.00;99.90;;;;;;5014807;28;20041;-75
2022/08/07 00:59:24;;;;;;;6.82;4.03;;;20.10;99.90;;;;;;5014873;28;20045;-75
2022/08/07 01:01:50;;;;;;;4.93;3.60;;;20.00;99.90;;;;;;5013512;28;20088;-75
2022/08/07 01:04:16;;;;;;;6.65;3.95;;;19.80;99.90;;;;;;5014987;28;20037;-75
2022/08/07 01:06:43;;;;;;;7.13;4.50;;;19.80;99.90;;;;;;5013511;28;20050;-76
2022/08/07 01:09:09;;;;;;;5.88;3.63;;;19.80;99.90;;;;;;5015148;28;20057;-75
2022/08/07 01:11:36;;;;;;;6.32;3.50;;;19.70;99.90;;;;;;5012897;28;20073;-75
2022/08/07 01:14:02;;;;;;;6.18;4.10;;;19.80;99.90;;;;;;5014187;28;20029;-75
2022/08/07 01:16:28;;;;;;;8.00;4.07;;;19.80;99.90;;;;;;5013279;28;20037;-75
2022/08/07 01:18:53;;;;;;;7.72;3.58;;;20.00;99.90;;;;;;5014254;28;20116;-75
2022/08/07 01:21:22;;;;;;;9.30;3.80;;;20.00;99.90;;;;;;5011643;28;20101;-75
2022/08/07 01:23:50;;;;;;;5.82;4.20;;;20.10;99.90;;;;;;5014586;28;20456;-78
2022/08/07 01:26:19;;;;;;;5.40;3.78;;;20.10;99.90;;;;;;5013246;28;20022;-75
2022/08/07 01:28:47;;;;;;;5.82;3.58;;;20.10;99.90;;;;;;5014537;28;20117;-75
2022/08/07 01:31:14;;;;;;;5.00;3.80;;;20.00;99.90;;;;;;5012735;28;20528;-75
2022/08/07 01:33:41;;;;;;;5.90;3.47;;;20.00;99.90;;;;;;5014473;28;20034;-75
2022/08/07 01:36:08;;;;;;;7.13;4.05;;;19.80;99.90;;;;;;5013317;28;20595;-76
2022/08/07 01:38:34;;;;;;;6.53;3.60;;;19.70;99.90;;;;;;5014437;28;20113;-75
2022/08/07 01:41:02;;;;;;;6.38;3.78;;;19.70;99.90;;;;;;5011807;28;20065;-75
2022/08/07 01:43:29;;;;;;;6.00;3.45;;;19.60;99.90;;;;;;5014154;28;20495;-75
2022/08/07 01:45:57;;;;;;;6.47;3.30;;;19.70;99.90;;;;;;5012897;28;20049;-75
2022/08/07 01:48:23;;;;;;;5.55;3.88;;;19.70;99.90;;;;;;5014471;28;20034;-75
2022/08/07 01:51:00;;;;;;;6.43;3.85;;;19.60;99.90;;;;;;5011643;28;20037;-75
2022/08/07 01:53:28;;;;;;;5.85;3.72;;;19.60;99.90;;;;;;5013595;28;20396;-76
2022/08/07 01:56:09;;;;;;;5.50;3.58;;;19.60;99.90;;;;;;5012397;28;20111;-75
2022/08/07 01:58:42;;;;;;;8.88;4.40;;;19.70;99.90;;;;;;5014075;28;20034;-75
2022/08/07 02:01:17;;;;;;;7.13;3.90;;;19.60;99.90;;;;;;5010831;28;20072;-75
2022/08/07 02:03:49;;;;;;;7.35;3.83;;;19.70;99.90;;;;;;5013348;28;20049;-75
2022/08/07 02:06:18;;;;;;;8.55;4.35;;;19.80;99.90;;;;;;5012041;28;20381;-75
2022/08/07 02:08:46;;;;;;;6.03;4.28;;;19.80;99.90;;;;;;5012363;28;20396;-76
2022/08/07 02:11:12;;;;;;;6.18;4.20;;;19.90;99.90;;;;;;5011951;28;20025;-75
2022/08/07 02:13:41;;;;;;;5.70;3.85;;;19.90;99.90;;;;;;5013004;28;20379;-75
2022/08/07 02:16:08;;;;;;;7.90;3.80;;;20.00;99.90;;;;;;5011728;28;20064;-75
2022/08/07 02:18:37;;;;;;;8.07;4.60;;;19.90;99.90;;;;;;5013276;28;20029;-75
2022/08/07 02:21:06;;;;;;;5.80;3.90;;;20.00;99.90;;;;;;5011049;28;20041;-76
2022/08/07 02:23:35;;;;;;;5.38;3.75;;;20.00;99.90;;;;;;5012667;28;20030;-76
2022/08/07 02:26:04;;;;;;;6.57;3.67;;;20.00;99.90;;;;;;5012141;28;20495;-75
2022/08/07 02:28:32;;;;;;;7.38;4.72;;;19.90;99.90;;;;;;5013294;28;20104;-75
2022/08/07 02:31:00;;;;;;;5.40;3.85;;;19.90;99.90;;;;;;5011382;28;20026;-75
2022/08/07 02:33:27;;;;;;;6.70;4.88;;;20.00;99.90;;;;;;5011725;28;20436;-75
2022/08/07 02:35:54;;;;;;;5.32;4.00;;;20.10;99.90;;;;;;5012420;28;20449;-75
2022/08/07 02:38:24;;;;;;;8.73;3.78;;;20.20;99.90;;;;;;5013227;28;20061;-76
2022/08/07 02:40:49;;;;;;;4.47;3.40;;;19.90;99.90;;;;;;5011605;28;20080;-75
2022/08/07 02:43:17;;;;;;;6.07;3.65;;;19.70;99.90;;;;;;5011834;28;20484;-75
2022/08/07 02:45:44;;;;;;;5.97;4.20;;;19.70;99.90;;;;;;5012317;28;20404;-75
2022/08/07 02:48:11;;;;;;;5.03;3.55;;;19.70;99.90;;;;;;5013199;28;20112;-75
2022/08/07 02:50:42;;;;;;;8.38;3.70;;;19.70;99.90;;;;;;5011303;28;20020;-75
2022/08/07 02:53:16;;;;;;;5.63;3.80;;;19.60;99.90;;;;;;5011250;28;20077;-75
2022/08/07 02:55:46;;;;;;;6.65;3.80;;;19.60;99.90;;;;;;5013114;28;20029;-75
2022/08/07 02:58:16;;;;;;;6.38;3.90;;;19.60;99.90;;;;;;5011432;28;20024;-75
2022/08/07 03:00:44;;;;;;;6.07;4.20;;;19.60;99.90;;;;;;5011619;28;20034;-75
2022/08/07 03:03:11;;;;;;;5.40;3.85;;;19.60;99.90;;;;;;5008938;28;20028;-75
2022/08/07 03:05:37;;;;;;;6.05;3.88;;;19.60;99.90;;;;;;5004844;28;20046;-75
2022/08/07 03:08:06;;;;;;;5.15;3.97;;;19.60;99.90;;;;;;5006818;28;20404;-75
2022/08/07 03:10:32;;;;;;;8.07;3.92;;;19.50;99.90;;;;;;5004729;28;20097;-75
2022/08/07 03:13:00;;;;;;;6.10;4.28;;;19.50;99.90;;;;;;4989738;28;20458;-75
2022/08/07 03:15:27;;;;;;;10.38;4.88;;;19.60;99.90;;;;;;5005474;28;20018;-75
2022/08/07 03:17:53;;;;;;;9.20;3.80;;;19.80;99.90;;;;;;4996258;28;20022;-74
2022/08/07 03:20:19;;;;;;;6.03;4.13;;;19.80;99.90;;;;;;4997227;28;20052;-75
2022/08/07 03:22:46;;;;;;;6.10;4.50;;;19.80;99.90;;;;;;5003677;28;20038;-75
2022/08/07 03:25:12;;;;;;;5.90;4.05;;;19.90;99.90;;;;;;5007262;28;20026;-75
2022/08/07 03:27:41;;;;;;;4.82;3.42;;;19.90;99.90;;;;;;5008254;28;20036;-75
2022/08/07 03:30:07;;;;;;;6.38;4.53;;;19.80;99.90;;;;;;5010865;28;20033;-75
2022/08/07 03:32:37;;;;;;;5.80;4.10;;;19.80;99.90;;;;;;5010208;28;20393;-75
2022/08/07 03:35:07;;;;;;;7.50;4.63;;;19.90;99.90;;;;;;4991680;28;20026;-75
2022/08/07 03:37:35;;;;;;;9.35;4.50;;;20.00;99.90;;;;;;5002625;28;20040;-75
2022/08/07 03:40:03;;;;;;;9.80;4.90;;;19.90;99.90;;;;;;5010439;28;20447;-75
2022/08/07 03:42:31;;;;;;;7.05;3.92;;;19.90;99.90;;;;;;5010512;28;20053;-75
2022/08/07 03:44:57;;;;;;;6.53;3.50;;;19.80;99.90;;;;;;5011490;28;20025;-75
2022/08/07 03:47:23;;;;;;;5.82;3.42;;;19.80;99.90;;;;;;5010239;28;20086;-76
2022/08/07 03:49:49;;;;;;;4.60;3.50;;;19.70;99.90;;;;;;5010613;28;20033;-75
2022/08/07 03:52:16;;;;;;;6.63;4.15;;;19.60;99.90;;;;;;5008586;28;20034;-75
2022/08/07 03:54:42;;;;;;;6.93;3.83;;;19.60;99.90;;;;;;5007806;28;20108;-74
2022/08/07 03:57:08;;;;;;;10.55;3.63;;;19.70;99.90;;;;;;5006692;28;20527;-75
2022/08/07 03:59:35;;;;;;;7.28;3.85;;;19.70;99.90;;;;;;5006896;28;20034;-75
2022/08/07 04:02:01;;;;;;;4.70;3.17;;;19.60;99.90;;;;;;5006463;28;20053;-74
2022/08/07 04:04:26;;;;;;;6.82;3.20;;;19.60;99.90;;;;;;5007377;28;20041;-75
2022/08/07 04:06:52;;;;;;;5.68;3.70;;;19.60;99.90;;;;;;5004556;28;20108;-75
2022/08/07 04:09:20;;;;;;;5.90;3.50;;;19.60;99.90;;;;;;5006810;28;20029;-75
2022/08/07 04:11:48;;;;;;;5.57;4.00;;;19.60;99.90;;;;;;5006001;28;20044;-75
2022/08/07 04:14:14;;;;;;;7.05;3.53;;;19.70;99.90;;;;;;5007172;28;20395;-75
2022/08/07 04:16:40;;;;;;;6.75;3.60;;;19.50;99.90;;;;;;5005514;28;20026;-75
2022/08/07 04:19:07;;;;;;;4.80;3.42;;;19.40;99.90;;;;;;5006176;28;20268;-75
2022/08/07 04:21:33;;;;;;;4.78;3.47;;;19.40;99.90;;;;;;5005793;28;20044;-75
2022/08/07 04:24:00;;;;;;;5.15;3.47;;;19.50;99.90;;;;;;5007821;28;20026;-75
2022/08/07 04:26:26;;;;;;;6.20;3.58;;;19.40;99.90;;;;;;5006258;28;20091;-75
2022/08/07 04:28:52;;;;;;;6.55;4.30;;;19.60;99.90;;;;;;5006080;28;20656;-76
2022/08/07 04:31:18;;;;;;;4.95;3.97;;;19.60;99.90;;;;;;5006941;28;20101;-75
2022/08/07 04:33:45;;;;;;;5.00;3.55;;;19.50;99.90;;;;;;5005731;28;20060;-75
2022/08/07 04:36:13;;;;;;;5.82;3.72;;;19.60;99.90;;;;;;5006824;28;20029;-75
2022/08/07 04:38:39;;;;;;;4.95;3.58;;;19.50;99.90;;;;;;5005257;28;20029;-75
2022/08/07 04:41:05;;;;;;;6.25;3.85;;;19.60;99.90;;;;;;5007339;28;20139;-76
2022/08/07 04:43:37;;;;;;;5.05;3.28;;;19.60;99.90;;;;;;5005728;28;20026;-77
2022/08/07 04:46:07;;;;;;;6.05;3.53;;;19.80;99.90;;;;;;5006141;28;20045;-76
2022/08/07 04:48:39;;;;;;;4.70;3.55;;;19.80;99.90;;;;;;5004839;28;20264;-76
2022/08/07 04:51:11;;;;;;;6.03;3.80;;;19.90;99.90;;;;;;5006209;28;20057;-76
2022/08/07 04:53:43;;;;;;;5.63;4.20;;;20.00;99.90;;;;;;5005619;28;20041;-77
2022/08/07 04:56:18;;;;;;;5.93;3.10;;;20.10;99.90;;;;;;5007037;28;20105;-77
2022/08/07 04:59:23;;;;;;;7.03;3.65;;;20.10;99.90;;;;;;5004765;28;20041;-77
2022/08/07 05:02:12;;;;;;;;;;;19.80;99.90;;;;;;5005677;28;20028;-77
2022/08/07 05:04:52;;;;;;;5.72;3.35;;;19.80;99.90;;;;;;5006135;28;19925;-76
2022/08/07 05:07:22;;;;;;;5.03;3.22;;;19.80;99.90;;;;;;5005275;28;20042;-77
2022/08/07 05:10:16;;;;;;;6.00;3.47;;;19.90;99.90;;;;;;5004300;28;20033;-77
2022/08/07 05:12:57;;;;;;;4.30;3.00;;;20.00;99.90;;;;;;5006258;28;20384;-77
2022/08/07 05:15:36;;;;;;;5.13;3.00;;;20.10;99.90;;;;;;5004746;28;20073;-76
2022/08/07 05:18:17;;;;;;;6.88;3.63;;;20.20;99.90;;;;;;5006284;28;20547;-77
2022/08/07 05:20:48;;;;;;;5.72;3.50;;;20.00;99.90;;;;;;5004117;28;20037;-77
2022/08/07 05:23:36;;;;;;;4.95;3.50;;;19.90;99.90;;;;;;5005869;28;20053;-75
2022/08/07 05:26:04;;;;;;;4.35;3.03;;;20.00;99.90;;;;;;5001597;28;20108;-75
2022/08/07 05:28:34;;;;;;;5.25;2.80;;;20.10;99.90;;;;;;5006253;28;20038;-75
2022/08/07 05:31:01;;;;;;;5.32;3.25;;;20.20;99.90;;;;;;5001688;28;20092;-76
2022/08/07 05:33:29;;;;;;;6.07;3.10;;;20.40;99.90;;;;;;5005771;28;20424;-76
2022/08/07 05:35:55;;;;;;;14.25;3.97;;;20.50;99.90;;;;;;5004576;28;20040;-76
2022/08/07 05:38:22;;;;;;;4.88;2.80;;;20.60;99.90;;;;;;5004643;28;20516;-76
2022/08/07 05:40:48;;;;;;;5.40;3.25;;;20.70;99.90;;;;;;5003964;28;20080;-75
2022/08/07 05:43:15;;;;;;;4.45;3.20;;;20.70;99.90;;;;;;5005256;28;20026;-76
2022/08/07 05:45:42;;;;;;;5.95;3.80;;;20.70;99.90;;;;;;5005604;28;20196;-75
2022/08/07 05:48:08;;;;;;;5.88;3.50;;;20.70;99.90;;;;;;5003987;28;20120;-76
2022/08/07 05:50:35;;;;;;;4.65;3.47;;;20.70;99.90;;;;;;5004626;28;20499;-76
2022/08/07 05:53:02;;;;;;;7.15;4.05;;;20.90;99.90;;;;;;5005246;28;20033;-76
2022/08/07 05:55:29;;;;;;;5.50;2.83;;;20.90;99.90;;;;;;5003488;28;20033;-75
2022/08/07 05:57:56;;;;;;;5.20;3.40;;;20.90;99.90;;;;;;5005767;28;20037;-75
2022/08/07 06:00:23;;;;;;;5.13;3.30;;;21.00;99.90;;;;;;5003944;28;20216;-76
2022/08/07 06:02:51;;;;;;;5.70;3.80;;;21.10;99.90;;;;;;5002658;28;20117;-75
2022/08/07 06:05:19;;;;;;;6.75;3.47;;;21.00;99.90;;;;;;5005413;28;20060;-75
2022/08/07 06:07:45;;;;;;;5.78;4.03;;;21.20;99.90;;;;;;5005330;28;20052;-75
2022/08/07 06:10:11;;;;;;;6.57;4.10;;;21.30;99.90;;;;;;5003789;28;20030;-75
2022/08/07 06:12:37;;;;;;;5.90;3.72;;;21.40;99.90;;;;;;5005750;28;20104;-75
2022/08/07 06:15:03;;;;;;;6.10;4.25;;;21.50;99.90;;;;;;5004576;28;20034;-75
2022/08/07 06:17:31;;;;;;;7.00;3.83;;;21.40;99.90;;;;;;5015506;28;20029;-75
2022/08/07 06:19:58;;;;;;;6.32;3.70;;;21.40;99.90;;;;;;5024498;28;20068;-75
2022/08/07 06:22:25;;;;;;;5.15;3.97;;;21.30;99.90;;;;;;5025184;28;20025;-75
2022/08/07 06:24:51;;;;;;;5.65;3.65;;;21.30;99.90;;;;;;5006806;28;20045;-75
2022/08/07 06:27:22;;;;;;;5.78;3.65;;;21.40;99.90;;;;;;5005603;28;20048;-75
2022/08/07 06:29:48;;;;;;;6.78;3.85;;;21.50;99.90;;;;;;5004616;28;20030;-75
2022/08/07 06:32:13;;;;;;;7.63;3.53;;;21.60;99.90;;;;;;5003644;28;20100;-75
2022/08/07 06:34:39;;;;;;;6.32;4.10;;;21.60;99.90;;;;;;5002372;28;20099;-75
2022/08/07 06:37:04;;;;;;;7.40;3.65;;;21.60;99.90;;;;;;5004601;28;20049;-75
2022/08/07 06:39:31;;;;;;;5.97;3.72;;;21.70;99.90;;;;;;5003266;28;20046;-76
2022/08/07 06:42:18;;;;;;;5.03;3.58;;;21.70;99.90;;;;;;5003125;28;20430;-75
2022/08/07 06:44:46;;;;;;;6.55;3.95;;;21.60;99.90;;;;;;5001567;28;20026;-74
2022/08/07 06:47:12;;;;;;;7.57;4.10;;;21.50;99.90;;;;;;5001578;28;20042;-75
2022/08/07 06:49:38;;;;;;;5.32;3.88;;;21.30;99.90;;;;;;5003131;28;20041;-74
2022/08/07 06:52:09;;;;;;;5.97;4.38;;;21.30;99.90;;;;;;5005675;28;20045;-74
2022/08/07 06:54:36;;;;;;;7.45;5.03;;;21.30;99.90;;;;;;5005470;28;20021;-74
2022/08/07 06:57:03;;;;;;;6.22;4.50;;;21.40;99.90;;;;;;5005898;28;20030;-74
2022/08/07 06:59:35;;;;;;;5.28;3.90;;;21.50;99.90;;;;;;5003490;28;20038;-74
2022/08/07 07:02:03;;;;;;;5.50;4.22;;;21.60;99.90;;;;;;5001579;28;20129;-75
2022/08/07 07:04:32;;;;;;;6.07;4.68;;;21.40;99.90;;;;;;5004842;28;20407;-75
2022/08/07 07:06:59;;;;;;;5.95;4.20;;;21.60;99.90;;;;;;5003326;28;20123;-75
2022/08/07 07:09:30;;;;;;;7.43;4.25;;;21.60;99.90;;;;;;5002695;28;20153;-75
2022/08/07 07:12:26;;;;;;;8.27;4.20;;;21.40;99.90;;;;;;4996590;28;20029;-75
2022/08/07 07:15:05;;;;;;;6.55;4.57;;;21.30;99.90;;;;;;5003795;28;20523;-74
2022/08/07 07:17:40;;;;;;;9.25;4.63;;;21.40;99.90;;;;;;5007617;28;20022;-76
2022/08/07 07:20:13;;;;;;;7.57;4.60;;;21.60;99.90;;;;;;5009820;28;20443;-73
2022/08/07 07:22:41;;;;;;;7.97;4.13;;;21.60;99.90;;;;;;5002531;28;20040;-72
2022/08/07 07:25:09;;;;;;;7.63;5.05;;;21.50;99.90;;;;;;5002818;28;20030;-74
2022/08/07 07:27:58;;;;;;;7.30;4.10;;;21.50;99.90;;;;;;5000505;28;20041;-71
2022/08/07 07:30:29;;;;;;;8.30;4.35;;;21.60;99.90;;;;;;4999899;28;20034;-72
2022/08/07 07:32:58;;;;;;;5.97;4.30;;;21.70;99.90;;;;;;5000284;28;20038;-72
2022/08/07 07:35:26;;;;;;;6.43;4.65;;;21.70;99.90;;;;;;5002479;28;20026;-73
2022/08/07 07:37:53;;;;;;;6.82;3.95;;;22.00;99.90;;;;;;5004002;28;20556;-72
2022/08/07 07:40:20;;;;;;;5.95;4.20;;;22.20;99.90;;;;;;5006987;28;20073;-71
2022/08/07 07:42:50;;;;;;;10.00;4.13;;;22.10;99.90;;;;;;5004272;28;20072;-69
2022/08/07 07:45:19;;;;;;;6.57;4.40;;;22.40;99.90;;;;;;5004290;28;20034;-70
2022/08/07 07:47:48;;;;;;;6.43;3.85;;;22.30;99.90;;;;;;5007525;28;20039;-71
2022/08/07 07:50:16;;;;;;;4.78;3.53;;;22.30;99.90;;;;;;5007370;28;20030;-70
2022/08/07 07:52:44;;;;;;;5.82;4.00;;;21.90;99.90;;;;;;5007619;28;20061;-71
2022/08/07 07:55:10;;;;;;;6.35;3.88;;;21.90;99.90;;;;;;5007356;28;20468;-71
2022/08/07 07:57:38;;;;;;;6.32;3.40;;;21.90;99.90;;;;;;5007601;28;20041;-71
2022/08/07 08:00:06;;;;;;;5.28;3.30;;;21.80;99.90;;;;;;5007047;28;20057;-71
2022/08/07 08:02:33;;;;;;;6.70;3.53;;;21.90;99.90;;;;;;5007262;28;20046;-74
2022/08/07 08:05:02;;;;;;;7.32;3.55;;;21.90;99.90;;;;;;5004675;28;20030;-72
2022/08/07 08:07:30;;;;;;;6.45;3.88;;;22.00;99.90;;;;;;5001351;28;20034;-70
2022/08/07 08:09:57;;;;;;;5.72;3.97;;;22.10;99.90;;;;;;5004090;28;20026;-71
2022/08/07 08:12:23;;;;;;;4.43;3.28;;;22.10;99.90;;;;;;5004952;28;20057;-72
2022/08/07 08:14:49;;;;;;;5.38;3.80;;;22.50;99.90;;;;;;5010064;28;20034;-71
2022/08/07 08:17:17;;;;;;;5.03;3.47;;;22.50;99.90;;;;;;5010586;28;20018;-71
2022/08/07 08:19:44;;;;;;;6.93;4.13;;;22.50;99.90;;;;;;5010767;28;20030;-71
2022/08/07 08:27:42;;;;;;;7.38;3.97;;;22.60;99.90;;;;;;5010760;28;20049;-71
2022/08/07 08:30:11;;;;;;;6.72;2.95;;;22.60;99.90;;;;;;5010978;28;20469;-71
2022/08/07 08:32:42;;;;;;;4.25;3.05;;;22.50;99.90;;;;;;5010438;28;20435;-71
2022/08/07 08:35:11;;;;;;;5.30;4.00;;;22.70;99.90;;;;;;5009203;28;20076;-70
2022/08/07 08:37:37;;;;;;;5.35;3.00;;;22.60;99.90;;;;;;5007459;28;20102;-71
2022/08/07 08:40:12;;;;;;;5.82;3.50;;;22.70;99.90;;;;;;5007075;28;20029;-71
2022/08/07 08:43:13;;;;;;;4.45;3.20;;;22.60;99.90;;;;;;5007138;28;20036;-71
2022/08/07 08:46:20;;;;;;;6.78;3.80;;;22.70;99.90;;;;;;5007188;28;20029;-71
2022/08/07 08:49:06;;;;;;;5.70;3.55;;;22.90;99.90;;;;;;5007310;28;20543;-71
2022/08/07 08:51:56;;;;;;;6.38;2.95;;;22.90;99.90;;;;;;5007357;28;20038;-70
2022/08/07 08:54:27;;;;;;;6.72;3.05;;;22.90;99.90;;;;;;5009303;28;20097;-71
2022/08/07 08:56:56;;;;;;;4.30;3.00;;;23.00;99.90;;;;;;5010515;28;20037;-71
2022/08/07 08:59:36;;;;;;;5.60;3.70;;;23.00;99.90;;;;;;5009857;28;20101;-71
2022/08/07 09:02:32;;;;;;;5.47;3.10;;;23.20;99.90;;;;;;5009773;28;20095;-71
2022/08/07 09:05:16;;;;;;;6.70;3.53;;;23.50;99.90;;;;;;5008351;28;20124;-72
2022/08/07 09:08:14;;;;;;;5.05;3.15;;;23.70;99.90;;;;;;5009911;28;20520;-71
2022/08/07 09:10:50;;;;;;;4.10;2.88;;;23.50;99.90;;;;;;5008001;28;20037;-71
2022/08/07 09:13:25;;;;;;;6.20;3.40;;;23.60;99.90;;;;;;5009569;28;20491;-71
2022/08/07 09:16:14;;;;;;;4.97;2.85;;;23.70;99.90;;;;;;5010040;28;20030;-72
2022/08/07 09:19:11;;;;;;;8.15;3.90;;;23.80;99.90;;;;;;5010029;28;20060;-72
2022/08/07 09:22:13;;;;;;;5.43;3.45;;;23.90;99.90;;;;;;5009187;28;20037;-71
2022/08/07 09:25:07;;;;;;;6.05;3.65;;;23.70;99.90;;;;;;5009318;28;20037;-71
2022/08/07 09:27:36;;;;;;;4.43;3.38;;;23.70;99.90;;;;;;5009354;28;20046;-71
2022/08/07 09:30:05;;;;;;;4.38;2.80;;;23.70;99.90;;;;;;5009405;28;20061;-72
2022/08/07 09:32:55;;;;;;;7.05;3.60;;;23.70;99.90;;;;;;5009259;28;20451;-71
2022/08/07 09:35:33;;;;;;;5.30;3.72;;;23.80;99.90;;;;;;5009273;28;20053;-72
2022/08/07 09:38:06;;;;;;;6.88;3.50;;;23.80;99.90;;;;;;5009117;28;20037;-72
2022/08/07 09:40:35;;;;;;;6.10;3.05;;;23.60;99.90;;;;;;5009139;28;20425;-71
2022/08/07 09:43:24;;;;;;;7.07;4.07;;;23.40;99.90;;;;;;5009111;28;20053;-71
2022/08/07 09:45:53;;;;;;;8.32;4.07;;;23.20;99.90;;;;;;5008692;28;20038;-71
2022/08/07 09:48:35;;;;;;;6.05;3.33;;;23.20;99.90;;;;;;5009048;28;20029;-72
2022/08/07 09:51:25;;;;;;;10.02;3.90;;;23.20;99.90;;;;;;5009064;28;20115;-71
2022/08/07 09:53:57;;;;;;;4.60;3.05;;;23.30;99.90;;;;;;5009033;28;20200;-72
2022/08/07 09:56:41;;;;;;;7.43;3.03;;;23.30;99.90;;;;;;5008986;28;20029;-71
2022/08/07 09:59:25;;;;;;;4.97;3.33;;;23.30;99.90;;;;;;5009097;28;20022;-71
2022/08/07 10:02:15;;;;;;;5.65;3.55;;;23.30;99.90;;;;;;5008669;28;20392;-71
2022/08/07 10:04:55;;;;;;;5.47;3.83;;;23.50;99.90;;;;;;5007505;28;20026;-71
2022/08/07 10:07:51;;;;;;;6.82;3.50;;;23.60;99.90;;;;;;5008537;28;20053;-72
2022/08/07 10:10:29;;;;;;;6.15;4.20;;;23.70;99.90;;;;;;5008692;28;20029;-71
2022/08/07 10:13:22;;;;;;;5.82;4.68;;;23.70;99.90;;;;;;5009027;28;20127;-71
2022/08/07 10:15:59;;;;;;;5.53;3.33;;;23.80;99.90;;;;;;5008356;28;20590;-71
2022/08/07 10:18:47;;;;;;;5.97;3.95;;;24.00;99.90;;;;;;5008486;28;20148;-72
2022/08/07 10:21:31;;;;;;;5.78;3.85;;;23.80;99.90;;;;;;5007986;28;20073;-71
2022/08/07 10:24:02;;;;;;;5.57;4.13;;;23.70;99.90;;;;;;5008146;28;20040;-71
2022/08/07 10:26:50;;;;;;;6.18;4.32;;;23.80;99.90;;;;;;5008006;28;20029;-71
2022/08/07 10:29:43;;;;;;;5.68;3.58;;;23.70;99.90;;;;;;5008392;28;20036;-71
2022/08/07 10:32:32;;;;;;;6.90;4.05;;;23.70;99.90;;;;;;5008490;28;20030;-71
2022/08/07 10:35:26;;;;;;;6.28;3.90;;;23.70;99.90;;;;;;5008307;28;20065;-71
2022/08/07 10:37:54;;;;;;;5.93;3.30;;;23.60;99.90;;;;;;5008539;28;20072;-71
2022/08/07 10:40:26;;;;;;;6.40;4.03;;;23.80;99.90;;;;;;5008582;28;20376;-71
2022/08/07 10:43:13;;;;;;;4.25;3.20;;;24.10;99.90;;;;;;5008060;28;20029;-71
2022/08/07 10:45:54;;;;;;;5.00;3.70;;;24.10;99.90;;;;;;5007823;28;20053;-71
2022/08/07 10:48:43;;;;;;;10.50;3.40;;;24.20;99.90;;;;;;5007913;28;20101;-71
2022/08/07 10:51:30;;;;;;;15.75;3.85;;;24.10;99.90;;;;;;5007803;28;20030;-71
2022/08/07 10:54:18;;;;;;;8.15;3.42;;;24.00;99.90;;;;;;5007738;28;20491;-71
2022/08/07 10:57:10;;;;;;;5.68;4.25;;;24.10;99.90;;;;;;5008227;28;20088;-71
2022/08/07 10:59:57;;;;;;;4.68;3.28;;;24.10;99.90;;;;;;5007758;28;20038;-71
2022/08/07 11:02:50;;;;;;;4.95;3.45;;;24.10;99.90;;;;;;5007642;28;20026;-72
2022/08/07 11:05:46;;;;;;;4.80;3.35;;;24.20;99.90;;;;;;5007625;28;20042;-72
2022/08/07 11:08:18;;;;;;;5.47;3.65;;;24.30;99.90;;;;;;5008226;28;20046;-72
2022/08/07 11:10:46;;;;;;;6.63;3.75;;;24.40;99.90;;;;;;5007551;28;20105;-72
2022/08/07 11:13:25;;;;;;;5.25;3.78;;;24.40;99.90;;;;;;5007668;28;20033;-71
2022/08/07 11:15:56;;;;;;;5.30;3.72;;;24.20;99.90;;;;;;5008144;28;20026;-71
2022/08/07 11:18:31;;;;;;;5.18;3.58;;;24.30;99.90;;;;;;5007949;28;20039;-71
2022/08/07 11:21:33;;;;;;;6.95;3.72;;;24.40;99.90;;;;;;5007892;28;20030;-72
2022/08/07 11:24:06;;;;;;;6.10;3.50;;;24.40;99.90;;;;;;5007741;28;20029;-71
2022/08/07 11:26:52;;;;;;;6.28;3.97;;;24.40;99.90;;;;;;5007377;28;20069;-72
2022/08/07 11:29:25;;;;;;;5.75;3.33;;;24.40;99.90;;;;;;5007345;28;20026;-71
2022/08/07 11:32:04;;;;;;;7.00;3.70;;;24.50;99.90;;;;;;5007662;28;20030;-72
2022/08/07 11:34:40;;;;;;;5.65;3.85;;;24.50;99.90;;;;;;5007753;28;20058;-72
2022/08/07 11:37:25;;;;;;;5.07;3.53;;;24.10;99.90;;;;;;5007826;28;20451;-72
2022/08/07 11:40:09;;;;;;;5.38;4.00;;;24.00;99.90;;;;;;5007648;28;20021;-71
2022/08/07 11:42:57;;;;;;;6.45;3.67;;;23.90;99.90;;;;;;5007346;28;20034;-72
2022/08/07 11:45:41;;;;;;;7.13;3.95;;;24.00;99.90;;;;;;5007163;28;20045;-72
2022/08/07 11:48:30;;;;;;;6.63;3.70;;;23.90;99.90;;;;;;5008537;28;20066;-71
2022/08/07 11:51:07;;;;;;;6.97;4.00;;;24.00;99.90;;;;;;5011549;28;20897;-71
2022/08/07 11:53:48;;;;;;;9.60;3.58;;;24.10;99.90;;;;;;5010825;28;20104;-71
2022/08/07 11:56:44;;;;;;;6.07;4.18;;;24.10;99.90;;;;;;5010927;28;20093;-72
2022/08/07 11:59:21;;;;;;;5.57;3.60;;;24.20;99.90;;;;;;5010928;28;20114;-72
2022/08/07 12:02:09;;;;;;;5.97;3.58;;;24.20;99.90;;;;;;5010912;28;20119;-72
2022/08/07 12:05:00;;;;;;;4.28;3.17;;;24.20;99.90;;;;;;5010546;28;20495;-71
2022/08/07 12:07:36;;;;;;;5.25;3.38;;;24.30;99.90;;;;;;5010733;28;20042;-71
2022/08/07 12:10:12;;;;;;;6.45;3.90;;;24.40;99.90;;;;;;5010450;28;20030;-71
2022/08/07 12:12:55;;;;;;;5.82;3.72;;;24.20;99.90;;;;;;5010438;28;20474;-71
2022/08/07 12:15:29;;;;;;;4.97;3.60;;;24.40;99.90;;;;;;5010782;28;20523;-71
2022/08/07 12:18:13;;;;;;;5.55;3.63;;;24.50;99.90;;;;;;5010736;28;20511;-71
2022/08/07 12:20:46;;;;;;;5.63;3.67;;;24.40;99.90;;;;;;5010280;28;20030;-71
2022/08/07 12:23:18;;;;;;;4.20;2.88;;;24.30;99.90;;;;;;5010579;28;20592;-72
2022/08/07 12:26:03;;;;;;;6.60;3.55;;;24.30;99.90;;;;;;5010447;28;20411;-71
2022/08/07 12:28:47;;;;;;;6.47;3.28;;;24.20;99.90;;;;;;5010500;28;20045;-71
2022/08/07 12:31:21;;;;;;;6.03;3.55;;;24.50;99.90;;;;;;5010174;28;20112;-71
2022/08/07 12:33:48;;;;;;;4.65;3.75;;;24.40;99.90;;;;;;5010308;28;20029;-71
2022/08/07 12:36:14;;;;;;;5.43;3.30;;;24.60;99.90;;;;;;5010601;28;20026;-71
2022/08/07 12:38:41;;;;;;;8.32;3.60;;;24.70;99.90;;;;;;5010336;28;20396;-72
2022/08/07 12:41:09;;;;;;;6.40;3.95;;;24.70;99.90;;;;;;5009811;28;20228;-71
2022/08/07 12:43:38;;;;;;;4.78;3.33;;;24.90;99.90;;;;;;5009846;28;20030;-71
2022/08/07 12:46:08;;;;;;;6.68;3.80;;;25.10;99.90;;;;;;5010084;28;20100;-71
2022/08/07 12:48:58;;;;;;;5.85;3.60;;;25.10;99.90;;;;;;5010510;28;20028;-71
2022/08/07 12:51:36;;;;;;;7.18;3.63;;;25.10;99.90;;;;;;5010653;28;20033;-72
2022/08/07 12:54:23;;;;;;;4.82;3.35;;;25.20;99.90;;;;;;5009669;28;20033;-71
2022/08/07 12:56:52;;;;;;;3.90;2.97;;;25.00;99.90;;;;;;5009953;28;20029;-72
2022/08/07 12:59:21;;;;;;;4.60;3.28;;;25.20;99.90;;;;;;5009529;28;20365;-72
2022/08/07 13:02:16;;;;;;;7.05;3.80;;;25.40;99.90;;;;;;5009664;28;20032;-71
2022/08/07 13:05:03;;;;;;;5.47;3.40;;;25.60;99.90;;;;;;5009882;28;20034;-72
2022/08/07 13:07:52;;;;;;;6.00;3.28;;;25.50;99.90;;;;;;5009748;28;20050;-71
2022/08/07 13:10:36;;;;;;;5.93;3.00;;;25.20;99.90;;;;;;5009946;28;20033;-71
2022/08/07 13:13:15;;;;;;;5.65;3.88;;;25.40;99.90;;;;;;5009532;28;20037;-71
2022/08/07 13:15:59;;;;;;;4.78;3.40;;;25.50;99.90;;;;;;5009947;28;20452;-72
2022/08/07 13:18:44;;;;;;;6.80;4.40;;;25.50;99.90;;;;;;5009983;28;20113;-72
2022/08/07 13:21:13;;;;;;;5.78;3.00;;;25.80;99.90;;;;;;5009373;28;20479;-73
2022/08/07 13:23:57;;;;;;;5.72;3.90;;;25.70;99.90;;;;;;5009623;28;20081;-72